Kristina — WDI5000 — position and weather

sailwx.info

Track history (hours):
 
Tides and Currents Weather Stations Pressure Air Temp Water Temp Dewpoint Dewpoint Depression Visibility Wind Speed Wind Dir Waves Ship Positions

Kristina

Owner: Harbor Breeze Corp, Long Beach, CA. More information available from US FCC via Universal Licensing System and Coast Guard Vessel Documentation Center.

Last reported at 2018-Apr-27 02:13 UTC. Time now 2018-Apr-27 06:38 UTC.
Position N 33°46' W 118°12'.

Length 24 m.

Type: Passenger vessel. MMSI: 367704150.

Date/timePositionNaut miles runAvg speedWind from/ knotsBaromVisibWave heightAir tempDewpointWater temp
2018-Apr-27 02:13N 33°46' W 118°12'0 0.0
2018-Apr-27 02:00N 33°46' W 118°12'2 3.1
2018-Apr-27 01:30N 33°44' W 118°11'2 3.0
2018-Apr-27 01:00N 33°46' W 118°12'2 3.4
2018-Apr-27 00:30N 33°44' W 118°11'611.2
2018-Apr-27 00:00N 33°39' W 118°13'3 5.8
2018-Apr-26 23:29N 33°38' W 118°16'3 5.9
2018-Apr-26 23:00N 33°41' W 118°16'510.9
2018-Apr-26 22:31N 33°44' W 118°11'2 3.6
2018-Apr-26 22:00N 33°46' W 118°12'2 3.4
2018-Apr-26 21:30N 33°45' W 118°10'2 3.5
2018-Apr-26 21:00N 33°46' W 118°12'0 0.0
2018-Apr-26 20:30N 33°46' W 118°12'2 3.2
2018-Apr-26 20:00N 33°44' W 118°11'2 3.1
2018-Apr-26 19:29N 33°46' W 118°12'2 3.3
2018-Apr-26 19:00N 33°44' W 118°11'2 3.1
2018-Apr-26 18:29N 33°46' W 118°12'0 0.0
2018-Apr-25 02:00N 33°46' W 118°12'1 2.8
2018-Apr-25 01:30N 33°45' W 118°11'1 2.8
2018-Apr-25 01:00N 33°46' W 118°12'1 2.8
2018-Apr-25 00:30N 33°45' W 118°10'1 2.9
2018-Apr-25 00:00N 33°46' W 118°12'0 0.0
2018-Apr-24 23:30N 33°46' W 118°12'2 3.2
2018-Apr-24 23:00N 33°45' W 118°10'2 3.1
2018-Apr-24 22:30N 33°46' W 118°12'0 0.0
2018-Apr-24 21:59N 33°46' W 118°12'2 3.6
2018-Apr-24 21:29N 33°45' W 118°10'2 3.9
2018-Apr-24 21:00N 33°46' W 118°12'0 0.0
2018-Apr-24 20:30N 33°46' W 118°12'2 3.2
2018-Apr-24 20:00N 33°44' W 118°11'2 3.2
2018-Apr-24 19:30N 33°46' W 118°12'1 2.9
2018-Apr-24 19:00N 33°45' W 118°11'1 2.8
2018-Apr-24 18:30N 33°46' W 118°12'0 0.0
2018-Apr-24 02:01N 33°46' W 118°12'0 0.0
2018-Apr-24 02:00N 33°46' W 118°12'1 2.8
2018-Apr-24 01:30N 33°45' W 118°11'1 2.7
2018-Apr-24 01:00N 33°46' W 118°12'2 4.2
2018-Apr-24 00:31N 33°44' W 118°10'2 4.2
2018-Apr-24 00:00N 33°46' W 118°12'0 0.0
2018-Apr-23 23:30N 33°46' W 118°12'2 3.7
2018-Apr-23 23:00N 33°45' W 118°10'2 3.8
2018-Apr-23 22:30N 33°46' W 118°12'0 0.0
2018-Apr-23 22:00N 33°46' W 118°12'2 3.1
2018-Apr-23 21:30N 33°45' W 118°10'2 3.1
2018-Apr-23 21:00N 33°46' W 118°12'0 0.0
2018-Apr-23 20:30N 33°46' W 118°12'1 2.7
2018-Apr-23 20:00N 33°45' W 118°11'1 2.7
2018-Apr-23 19:30N 33°46' W 118°12'1 1.6
2018-Apr-23 19:00N 33°45' W 118°11'1 1.7
2018-Apr-23 18:30N 33°46' W 118°12'0 0.0
2018-Apr-23 02:13N 33°46' W 118°12'2 7.3
2018-Apr-23 02:00N 33°45' W 118°10'2 3.1
2018-Apr-23 01:30N 33°46' W 118°12'0 0.0
2018-Apr-23 01:00N 33°46' W 118°12'2 3.5
2018-Apr-23 00:30N 33°45' W 118°10'2 3.5
2018-Apr-23 00:00N 33°46' W 118°12'0 0.0
2018-Apr-22 23:30N 33°46' W 118°12'1 2.8
2018-Apr-22 23:00N 33°45' W 118°10'1 2.8
2018-Apr-22 22:30N 33°46' W 118°12'0 0.0
2018-Apr-22 22:00N 33°46' W 118°12'2 3.7
2018-Apr-22 21:30N 33°45' W 118°10'2 3.6
2018-Apr-22 20:59N 33°46' W 118°12'0 0.0
2018-Apr-22 20:30N 33°46' W 118°12'0 0.0
2018-Apr-22 20:00N 33°46' W 118°12'0 0.0
2018-Apr-22 19:30N 33°46' W 118°12'4 8.0
2018-Apr-22 19:00N 33°42' W 118°12'611.8
2018-Apr-22 18:30N 33°36' W 118°15'612.0
2018-Apr-22 18:00N 33°31' W 118°18'611.7
2018-Apr-22 17:28N 33°25' W 118°21'2 4.4
2018-Apr-22 17:00N 33°24' W 118°22'1 1.2
2018-Apr-22 16:23N 33°24' W 118°22'511.7
2018-Apr-22 15:59N 33°29' W 118°20'611.4
2018-Apr-22 15:30N 33°34' W 118°17'611.3
2018-Apr-22 15:00N 33°38' W 118°14'611.7
2018-Apr-22 14:30N 33°44' W 118°11'2 0.2
2018-Apr-22 04:55N 33°46' W 118°12'1 2.9
2018-Apr-22 04:28N 33°45' W 118°10'2 3.2
2018-Apr-22 03:57N 33°45' W 118°08'1 2.7
2018-Apr-22 03:30N 33°45' W 118°10'2 4.2
2018-Apr-22 03:00N 33°44' W 118°07'0 0.7
2018-Apr-22 02:30N 33°44' W 118°07'2 3.7
2018-Apr-22 02:00N 33°45' W 118°09'2 3.8
2018-Apr-22 01:30N 33°45' W 118°11'0 0.9
2018-Apr-22 01:00N 33°46' W 118°12'0 0.0
2018-Apr-22 00:29N 33°46' W 118°12'0 0.0
2018-Apr-22 00:00N 33°46' W 118°12'0 0.0
2018-Apr-21 23:30N 33°46' W 118°12'2 4.3
2018-Apr-21 22:59N 33°44' W 118°09'2 4.6
2018-Apr-21 22:30N 33°46' W 118°12'0 0.0
2018-Apr-21 22:00N 33°46' W 118°12'2 4.1
2018-Apr-21 21:28N 33°45' W 118°09'2 4.8
2018-Apr-21 21:00N 33°46' W 118°12'0 0.0
2018-Apr-21 20:30N 33°46' W 118°12'2 3.8
2018-Apr-21 19:58N 33°45' W 118°10'2 4.5
2018-Apr-21 19:30N 33°46' W 118°12'0 0.0
2018-Apr-21 19:00N 33°46' W 118°12'0 0.0
2018-Apr-21 01:35N 33°46' W 118°12'0 0.0
2018-Apr-21 01:30N 33°46' W 118°12'0 0.0
2018-Apr-21 01:00N 33°46' W 118°12'0 0.0
2018-Apr-21 00:30N 33°46' W 118°12'0 0.0
2018-Apr-21 00:00N 33°46' W 118°12'3 5.5
2018-Apr-20 23:30N 33°43' W 118°13'3 5.3
2018-Apr-20 22:59N 33°44' W 118°17'0 0.0
2018-Apr-20 22:30N 33°44' W 118°17'0 0.5
2018-Apr-20 22:00N 33°44' W 118°17'2 4.1
2018-Apr-20 21:30N 33°42' W 118°15'2 0.5
2018-Apr-20 17:39N 33°41' W 118°17'211.6
2018-Apr-20 17:30N 33°42' W 118°15'3 5.1
2018-Apr-20 17:00N 33°44' W 118°17'0 0.0
2018-Apr-20 16:30N 33°44' W 118°17'0 0.0
2018-Apr-20 15:59N 33°44' W 118°17'3 6.4
2018-Apr-20 15:30N 33°43' W 118°14'3 6.6
2018-Apr-20 14:59N 33°46' W 118°12'0 0.0
2018-Apr-20 02:06N 33°46' W 118°12'0 0.0
2018-Apr-20 02:00N 33°46' W 118°12'2 3.1
2018-Apr-20 01:30N 33°44' W 118°11'2 3.1
2018-Apr-20 01:00N 33°46' W 118°12'2 3.6
2018-Apr-20 00:30N 33°45' W 118°10'2 3.8
2018-Apr-20 00:00N 33°46' W 118°12'0 0.0
2018-Apr-19 23:29N 33°46' W 118°12'2 3.8
2018-Apr-19 23:00N 33°45' W 118°10'2 3.6
2018-Apr-19 22:30N 33°46' W 118°12'0 0.0
2018-Apr-19 22:00N 33°46' W 118°12'2 3.8
2018-Apr-19 21:26N 33°44' W 118°10'2 4.9
2018-Apr-19 20:59N 33°46' W 118°12'0 0.0
2018-Apr-19 20:30N 33°46' W 118°12'1 2.8
2018-Apr-19 20:00N 33°45' W 118°11'1 0.1
2018-Apr-19 02:16N 33°46' W 118°12'0 0.0
2018-Apr-19 02:00N 33°46' W 118°12'1 2.6
2018-Apr-19 01:30N 33°45' W 118°11'1 2.3
2018-Apr-19 00:56N 33°46' W 118°12'2 3.8
2018-Apr-19 00:30N 33°45' W 118°10'2 3.4
2018-Apr-19 00:00N 33°46' W 118°12'0 0.0
2018-Apr-18 23:30N 33°46' W 118°12'2 3.1
2018-Apr-18 23:00N 33°45' W 118°10'2 2.7
2018-Apr-18 22:27N 33°46' W 118°12'0 0.0
2018-Apr-18 22:00N 33°46' W 118°12'2 3.1
2018-Apr-18 21:30N 33°45' W 118°10'2 2.8
2018-Apr-18 20:57N 33°46' W 118°12'0 0.0
2018-Apr-18 20:23N 33°46' W 118°12'0 0.0
2018-Apr-18 19:58N 33°46' W 118°12'0 0.0
2018-Apr-18 19:30N 33°46' W 118°12'0 0.0
2018-Apr-18 19:00N 33°46' W 118°12'0 0.0
2018-Apr-18 18:26N 33°46' W 118°12'0 0.0
2018-Apr-18 17:59N 33°46' W 118°12'0 0.0
2018-Apr-18 17:30N 33°46' W 118°12'0 0.0
2018-Apr-18 16:54N 33°46' W 118°12'0 0.0
2018-Apr-18 16:27N 33°46' W 118°12'0 0.0
2018-Apr-18 01:58N 33°46' W 118°12'2 3.5
2018-Apr-18 01:31N 33°44' W 118°11'2 3.2
2018-Apr-18 01:01N 33°46' W 118°12'2 3.9
2018-Apr-18 00:30N 33°44' W 118°10'2 4.1
2018-Apr-18 00:00N 33°46' W 118°12'0 0.0
2018-Apr-17 23:30N 33°46' W 118°12'2 3.4
2018-Apr-17 23:01N 33°45' W 118°10'2 3.3
2018-Apr-17 22:31N 33°46' W 118°12'0 0.0
2018-Apr-17 22:00N 33°46' W 118°12'2 3.6
2018-Apr-17 21:30N 33°45' W 118°10'2 3.6
2018-Apr-17 21:01N 33°46' W 118°12'0 0.0
2018-Apr-17 20:31N 33°46' W 118°12'1 2.9
2018-Apr-17 20:01N 33°45' W 118°11'1 2.8
2018-Apr-17 19:30N 33°46' W 118°12'1 3.0
2018-Apr-17 19:00N 33°45' W 118°11'1 2.9
2018-Apr-17 18:30N 33°46' W 118°12'0 0.0
2018-Apr-17 18:01N 33°46' W 118°12'  
Track history (hours):
 
Tides and Currents Weather Stations Pressure Air Temp Water Temp Dewpoint Dewpoint Depression Visibility Wind Speed Wind Dir Waves Ship Positions

Kristina

Owner: Harbor Breeze Corp, Long Beach, CA. More information available from US FCC via Universal Licensing System and Coast Guard Vessel Documentation Center.

Last reported at 2018-Apr-27 02:13 UTC. Time now 2018-Apr-27 06:38 UTC.
Position N 33°46' W 118°12'.

Length 24 m.

Type: Passenger vessel. MMSI: 367704150.

Date/timePositionNaut miles runAvg speedWind from/ knotsBaromVisibWave heightAir tempDewpointWater temp
2018-Apr-27 02:13N 33°46' W 118°12'0 0.0
2018-Apr-27 02:00N 33°46' W 118°12'2 3.1
2018-Apr-27 01:30N 33°44' W 118°11'2 3.0
2018-Apr-27 01:00N 33°46' W 118°12'2 3.4
2018-Apr-27 00:30N 33°44' W 118°11'611.2
2018-Apr-27 00:00N 33°39' W 118°13'3 5.8
2018-Apr-26 23:29N 33°38' W 118°16'3 5.9
2018-Apr-26 23:00N 33°41' W 118°16'510.9
2018-Apr-26 22:31N 33°44' W 118°11'2 3.6
2018-Apr-26 22:00N 33°46' W 118°12'2 3.4
2018-Apr-26 21:30N 33°45' W 118°10'2 3.5
2018-Apr-26 21:00N 33°46' W 118°12'0 0.0
2018-Apr-26 20:30N 33°46' W 118°12'2 3.2
2018-Apr-26 20:00N 33°44' W 118°11'2 3.1
2018-Apr-26 19:29N 33°46' W 118°12'2 3.3
2018-Apr-26 19:00N 33°44' W 118°11'2 3.1
2018-Apr-26 18:29N 33°46' W 118°12'0 0.0
2018-Apr-25 02:00N 33°46' W 118°12'1 2.8
2018-Apr-25 01:30N 33°45' W 118°11'1 2.8
2018-Apr-25 01:00N 33°46' W 118°12'1 2.8
2018-Apr-25 00:30N 33°45' W 118°10'1 2.9
2018-Apr-25 00:00N 33°46' W 118°12'0 0.0
2018-Apr-24 23:30N 33°46' W 118°12'2 3.2
2018-Apr-24 23:00N 33°45' W 118°10'2 3.1
2018-Apr-24 22:30N 33°46' W 118°12'0 0.0
2018-Apr-24 21:59N 33°46' W 118°12'2 3.6
2018-Apr-24 21:29N 33°45' W 118°10'2 3.9
2018-Apr-24 21:00N 33°46' W 118°12'0 0.0
2018-Apr-24 20:30N 33°46' W 118°12'2 3.2
2018-Apr-24 20:00N 33°44' W 118°11'2 3.2
2018-Apr-24 19:30N 33°46' W 118°12'1 2.9
2018-Apr-24 19:00N 33°45' W 118°11'1 2.8
2018-Apr-24 18:30N 33°46' W 118°12'0 0.0
2018-Apr-24 02:01N 33°46' W 118°12'0 0.0
2018-Apr-24 02:00N 33°46' W 118°12'1 2.8
2018-Apr-24 01:30N 33°45' W 118°11'1 2.7
2018-Apr-24 01:00N 33°46' W 118°12'2 4.2
2018-Apr-24 00:31N 33°44' W 118°10'2 4.2
2018-Apr-24 00:00N 33°46' W 118°12'0 0.0
2018-Apr-23 23:30N 33°46' W 118°12'2 3.7
2018-Apr-23 23:00N 33°45' W 118°10'2 3.8
2018-Apr-23 22:30N 33°46' W 118°12'0 0.0
2018-Apr-23 22:00N 33°46' W 118°12'2 3.1
2018-Apr-23 21:30N 33°45' W 118°10'2 3.1
2018-Apr-23 21:00N 33°46' W 118°12'0 0.0
2018-Apr-23 20:30N 33°46' W 118°12'1 2.7
2018-Apr-23 20:00N 33°45' W 118°11'1 2.7
2018-Apr-23 19:30N 33°46' W 118°12'1 1.6
2018-Apr-23 19:00N 33°45' W 118°11'1 1.7
2018-Apr-23 18:30N 33°46' W 118°12'0 0.0
2018-Apr-23 02:13N 33°46' W 118°12'2 7.3
2018-Apr-23 02:00N 33°45' W 118°10'2 3.1
2018-Apr-23 01:30N 33°46' W 118°12'0 0.0
2018-Apr-23 01:00N 33°46' W 118°12'2 3.5
2018-Apr-23 00:30N 33°45' W 118°10'2 3.5
2018-Apr-23 00:00N 33°46' W 118°12'0 0.0
2018-Apr-22 23:30N 33°46' W 118°12'1 2.8
2018-Apr-22 23:00N 33°45' W 118°10'1 2.8
2018-Apr-22 22:30N 33°46' W 118°12'0 0.0
2018-Apr-22 22:00N 33°46' W 118°12'2 3.7
2018-Apr-22 21:30N 33°45' W 118°10'2 3.6
2018-Apr-22 20:59N 33°46' W 118°12'0 0.0
2018-Apr-22 20:30N 33°46' W 118°12'0 0.0
2018-Apr-22 20:00N 33°46' W 118°12'0 0.0
2018-Apr-22 19:30N 33°46' W 118°12'4 8.0
2018-Apr-22 19:00N 33°42' W 118°12'611.8
2018-Apr-22 18:30N 33°36' W 118°15'612.0
2018-Apr-22 18:00N 33°31' W 118°18'611.7
2018-Apr-22 17:28N 33°25' W 118°21'2 4.4
2018-Apr-22 17:00N 33°24' W 118°22'1 1.2
2018-Apr-22 16:23N 33°24' W 118°22'511.7
2018-Apr-22 15:59N 33°29' W 118°20'611.4
2018-Apr-22 15:30N 33°34' W 118°17'611.3
2018-Apr-22 15:00N 33°38' W 118°14'611.7
2018-Apr-22 14:30N 33°44' W 118°11'2 0.2
2018-Apr-22 04:55N 33°46' W 118°12'1 2.9
2018-Apr-22 04:28N 33°45' W 118°10'2 3.2
2018-Apr-22 03:57N 33°45' W 118°08'1 2.7
2018-Apr-22 03:30N 33°45' W 118°10'2 4.2
2018-Apr-22 03:00N 33°44' W 118°07'0 0.7
2018-Apr-22 02:30N 33°44' W 118°07'2 3.7
2018-Apr-22 02:00N 33°45' W 118°09'2 3.8
2018-Apr-22 01:30N 33°45' W 118°11'0 0.9
2018-Apr-22 01:00N 33°46' W 118°12'0 0.0
2018-Apr-22 00:29N 33°46' W 118°12'0 0.0
2018-Apr-22 00:00N 33°46' W 118°12'0 0.0
2018-Apr-21 23:30N 33°46' W 118°12'2 4.3
2018-Apr-21 22:59N 33°44' W 118°09'2 4.6
2018-Apr-21 22:30N 33°46' W 118°12'0 0.0
2018-Apr-21 22:00N 33°46' W 118°12'2 4.1
2018-Apr-21 21:28N 33°45' W 118°09'2 4.8
2018-Apr-21 21:00N 33°46' W 118°12'0 0.0
2018-Apr-21 20:30N 33°46' W 118°12'2 3.8
2018-Apr-21 19:58N 33°45' W 118°10'2 4.5
2018-Apr-21 19:30N 33°46' W 118°12'0 0.0
2018-Apr-21 19:00N 33°46' W 118°12'0 0.0
2018-Apr-21 01:35N 33°46' W 118°12'0 0.0
2018-Apr-21 01:30N 33°46' W 118°12'0 0.0
2018-Apr-21 01:00N 33°46' W 118°12'0 0.0
2018-Apr-21 00:30N 33°46' W 118°12'0 0.0
2018-Apr-21 00:00N 33°46' W 118°12'3 5.5
2018-Apr-20 23:30N 33°43' W 118°13'3 5.3
2018-Apr-20 22:59N 33°44' W 118°17'0 0.0
2018-Apr-20 22:30N 33°44' W 118°17'0 0.5
2018-Apr-20 22:00N 33°44' W 118°17'2 4.1
2018-Apr-20 21:30N 33°42' W 118°15'2 0.5
2018-Apr-20 17:39N 33°41' W 118°17'211.6
2018-Apr-20 17:30N 33°42' W 118°15'3 5.1
2018-Apr-20 17:00N 33°44' W 118°17'0 0.0
2018-Apr-20 16:30N 33°44' W 118°17'0 0.0
2018-Apr-20 15:59N 33°44' W 118°17'3 6.4
2018-Apr-20 15:30N 33°43' W 118°14'3 6.6
2018-Apr-20 14:59N 33°46' W 118°12'0 0.0
2018-Apr-20 02:06N 33°46' W 118°12'0 0.0
2018-Apr-20 02:00N 33°46' W 118°12'2 3.1
2018-Apr-20 01:30N 33°44' W 118°11'2 3.1
2018-Apr-20 01:00N 33°46' W 118°12'2 3.6
2018-Apr-20 00:30N 33°45' W 118°10'2 3.8
2018-Apr-20 00:00N 33°46' W 118°12'0 0.0
2018-Apr-19 23:29N 33°46' W 118°12'2 3.8
2018-Apr-19 23:00N 33°45' W 118°10'2 3.6
2018-Apr-19 22:30N 33°46' W 118°12'0 0.0
2018-Apr-19 22:00N 33°46' W 118°12'2 3.8
2018-Apr-19 21:26N 33°44' W 118°10'2 4.9
2018-Apr-19 20:59N 33°46' W 118°12'0 0.0
2018-Apr-19 20:30N 33°46' W 118°12'1 2.8
2018-Apr-19 20:00N 33°45' W 118°11'1 0.1
2018-Apr-19 02:16N 33°46' W 118°12'0 0.0
2018-Apr-19 02:00N 33°46' W 118°12'1 2.6
2018-Apr-19 01:30N 33°45' W 118°11'1 2.3
2018-Apr-19 00:56N 33°46' W 118°12'2 3.8
2018-Apr-19 00:30N 33°45' W 118°10'2 3.4
2018-Apr-19 00:00N 33°46' W 118°12'0 0.0
2018-Apr-18 23:30N 33°46' W 118°12'2 3.1
2018-Apr-18 23:00N 33°45' W 118°10'2 2.7
2018-Apr-18 22:27N 33°46' W 118°12'0 0.0
2018-Apr-18 22:00N 33°46' W 118°12'2 3.1
2018-Apr-18 21:30N 33°45' W 118°10'2 2.8
2018-Apr-18 20:57N 33°46' W 118°12'0 0.0
2018-Apr-18 20:23N 33°46' W 118°12'0 0.0
2018-Apr-18 19:58N 33°46' W 118°12'0 0.0
2018-Apr-18 19:30N 33°46' W 118°12'0 0.0
2018-Apr-18 19:00N 33°46' W 118°12'0 0.0
2018-Apr-18 18:26N 33°46' W 118°12'0 0.0
2018-Apr-18 17:59N 33°46' W 118°12'0 0.0
2018-Apr-18 17:30N 33°46' W 118°12'0 0.0
2018-Apr-18 16:54N 33°46' W 118°12'0 0.0
2018-Apr-18 16:27N 33°46' W 118°12'0 0.0
2018-Apr-18 01:58N 33°46' W 118°12'2 3.5
2018-Apr-18 01:31N 33°44' W 118°11'2 3.2
2018-Apr-18 01:01N 33°46' W 118°12'2 3.9
2018-Apr-18 00:30N 33°44' W 118°10'2 4.1
2018-Apr-18 00:00N 33°46' W 118°12'0 0.0
2018-Apr-17 23:30N 33°46' W 118°12'2 3.4
2018-Apr-17 23:01N 33°45' W 118°10'2 3.3
2018-Apr-17 22:31N 33°46' W 118°12'0 0.0
2018-Apr-17 22:00N 33°46' W 118°12'2 3.6
2018-Apr-17 21:30N 33°45' W 118°10'2 3.6
2018-Apr-17 21:01N 33°46' W 118°12'0 0.0
2018-Apr-17 20:31N 33°46' W 118°12'1 2.9
2018-Apr-17 20:01N 33°45' W 118°11'1 2.8
2018-Apr-17 19:30N 33°46' W 118°12'1 3.0
2018-Apr-17 19:00N 33°45' W 118°11'1 2.9
2018-Apr-17 18:30N 33°46' W 118°12'0 0.0
2018-Apr-17 18:01N 33°46' W 118°12'  

Dump ship's entire track history